createdAt,value
2022-10-19T00:01:36.614Z,72.63
2022-10-19T00:04:07.974Z,71.94
2022-10-19T00:06:37.256Z,72.50
2022-10-19T00:09:06.125Z,71.77
2022-10-19T00:11:34.301Z,71.70
2022-10-19T00:14:02.150Z,72.47
2022-10-19T00:16:32.140Z,72.17
2022-10-19T00:19:01.789Z,71.81
2022-10-19T00:21:29.456Z,72.63
2022-10-19T00:23:57.076Z,71.17
2022-10-19T00:26:24.716Z,72.09
2022-10-19T00:28:54.274Z,71.00
2022-10-19T00:31:22.167Z,70.10
2022-10-19T00:33:49.937Z,71.42
2022-10-19T00:36:20.225Z,70.18
2022-10-19T00:38:48.193Z,70.32
2022-10-19T00:41:16.045Z,70.34
2022-10-19T00:43:54.203Z,70.44
2022-10-19T00:46:21.909Z,71.43
2022-10-19T00:51:24.749Z,72.03
2022-10-19T00:53:52.616Z,72.05
2022-10-19T00:56:20.319Z,73.33
2022-10-19T00:58:48.127Z,71.99
2022-10-19T01:01:18.417Z,72.70
2022-10-19T01:03:46.187Z,71.25
2022-10-19T01:06:15.421Z,70.46
2022-10-19T01:08:44.614Z,70.84
2022-10-19T01:11:20.588Z,71.30
2022-10-19T01:13:54.882Z,71.40
2022-10-19T01:16:29.172Z,69.46
2022-10-19T01:19:03.698Z,69.81
2022-10-19T01:21:36.530Z,69.03
2022-10-19T01:24:23.537Z,68.87
2022-10-19T01:27:14.187Z,68.75
2022-10-19T01:29:53.049Z,69.25
2022-10-19T01:32:24.627Z,68.14
2022-10-19T01:34:58.578Z,68.45
2022-10-19T01:37:33.254Z,68.99
2022-10-19T01:40:05.207Z,69.61
2022-10-19T01:42:33.991Z,70.23
2022-10-19T01:45:05.565Z,71.08
2022-10-19T01:47:36.894Z,70.94
2022-10-19T01:50:07.790Z,70.96
2022-10-19T01:52:36.681Z,70.99
2022-10-19T01:55:05.482Z,71.52
2022-10-19T01:57:34.316Z,71.97
2022-10-19T02:00:07.437Z,71.28
2022-10-19T02:02:41.379Z,71.23
2022-10-19T02:05:10.135Z,70.86
2022-10-19T02:07:38.938Z,71.28
2022-10-19T02:10:07.492Z,72.09
2022-10-19T02:12:35.704Z,71.94
2022-10-19T02:15:10.385Z,71.84
2022-10-19T02:17:41.529Z,71.53
2022-10-19T02:20:09.584Z,71.84
2022-10-19T02:22:37.353Z,70.52
2022-10-19T02:25:05.424Z,70.65
2022-10-19T02:27:33.156Z,71.42
2022-10-19T02:30:00.849Z,72.46
2022-10-19T02:32:29.821Z,70.88
2022-10-19T02:34:57.447Z,70.92
2022-10-19T02:37:25.749Z,70.36
2022-10-19T02:39:53.560Z,70.27
2022-10-19T02:42:24.473Z,70.87
2022-10-19T02:44:54.460Z,70.56
2022-10-19T02:47:25.036Z,71.04
2022-10-19T02:49:54.608Z,71.31
2022-10-19T02:52:22.211Z,70.38
2022-10-19T02:54:49.824Z,71.33
2022-10-19T02:57:18.690Z,70.48
2022-10-19T02:59:46.408Z,70.42
2022-10-19T03:02:14.451Z,70.48
2022-10-19T03:04:42.625Z,69.79
2022-10-19T03:07:12.337Z,71.53
2022-10-19T03:09:39.962Z,70.79
2022-10-19T03:12:07.737Z,72.15
2022-10-19T03:14:35.478Z,71.72
2022-10-19T03:17:03.332Z,71.66
2022-10-19T03:19:30.948Z,73.07
2022-10-19T03:21:58.635Z,72.12
2022-10-19T03:24:27.663Z,72.11
2022-10-19T03:26:55.278Z,72.66
2022-10-19T03:29:23.049Z,71.80
2022-10-19T03:31:50.701Z,71.75
2022-10-19T03:34:18.307Z,72.63
2022-10-19T03:36:46.880Z,73.96
2022-10-19T03:39:16.039Z,74.08
2022-10-19T03:41:45.234Z,73.15
2022-10-19T03:44:13.140Z,73.63
2022-10-19T03:46:41.001Z,73.57
2022-10-19T03:49:09.079Z,72.41
2022-10-19T03:51:37.051Z,72.96
2022-10-19T03:54:06.555Z,72.99
2022-10-19T03:56:34.612Z,72.97
2022-10-19T03:59:04.623Z,73.89
2022-10-19T04:01:33.421Z,71.81
2022-10-19T04:04:01.794Z,72.63
2022-10-19T04:06:30.326Z,72.02
2022-10-19T04:08:58.308Z,72.86
2022-10-19T04:11:27.050Z,71.74
2022-10-19T04:13:55.843Z,70.49
2022-10-19T04:16:25.391Z,70.16
2022-10-19T04:18:53.245Z,70.67
2022-10-19T04:21:22.825Z,70.22
2022-10-19T04:23:51.080Z,69.77
2022-10-19T04:26:18.892Z,69.83
2022-10-19T04:28:46.656Z,69.71
2022-10-19T04:31:14.293Z,69.47
2022-10-19T04:33:43.485Z,69.67
2022-10-19T04:36:11.994Z,68.99
2022-10-19T04:38:39.648Z,68.72
2022-10-19T04:41:08.393Z,69.04
2022-10-19T04:43:36.076Z,68.98
2022-10-19T04:46:04.779Z,68.59
2022-10-19T04:48:32.483Z,69.28
2022-10-19T04:51:01.480Z,68.11
2022-10-19T04:53:29.356Z,69.25
2022-10-19T04:55:56.975Z,68.76
2022-10-19T04:58:24.604Z,69.09
2022-10-19T05:00:52.296Z,68.25
2022-10-19T05:03:19.957Z,69.73
2022-10-19T05:05:47.570Z,69.22
2022-10-19T05:08:16.552Z,68.61
2022-10-19T05:10:47.599Z,68.48
2022-10-19T05:13:15.602Z,70.53
2022-10-19T05:15:43.304Z,69.96
2022-10-19T05:18:10.900Z,68.78
2022-10-19T05:20:38.534Z,70.48
2022-10-19T05:23:07.316Z,71.65
2022-10-19T05:25:36.454Z,71.44
2022-10-19T05:28:04.130Z,71.63
2022-10-19T05:30:32.533Z,72.57
2022-10-19T05:33:00.135Z,72.80
2022-10-19T05:35:27.739Z,72.79
2022-10-19T05:37:55.471Z,73.76
2022-10-19T05:40:23.196Z,74.21
2022-10-19T05:42:52.185Z,72.70
2022-10-19T05:45:19.775Z,73.32
2022-10-19T05:47:47.434Z,73.92
2022-10-19T05:50:15.050Z,73.28
2022-10-19T05:52:42.673Z,72.29
2022-10-19T05:55:10.703Z,72.63
2022-10-19T05:57:38.312Z,72.67
2022-10-19T06:00:07.812Z,71.61
2022-10-19T06:02:39.402Z,73.15
2022-10-19T06:05:07.550Z,72.50
2022-10-19T06:07:35.453Z,72.59
2022-10-19T06:10:03.357Z,72.66
2022-10-19T06:12:30.971Z,72.83
2022-10-19T06:14:58.609Z,72.71
2022-10-19T06:17:29.037Z,71.99
2022-10-19T06:19:56.696Z,72.10
2022-10-19T06:22:24.304Z,72.97
2022-10-19T06:24:52.061Z,72.23
2022-10-19T06:27:19.778Z,72.27
2022-10-19T06:29:47.462Z,72.99
2022-10-19T06:32:15.119Z,72.86
2022-10-19T06:34:44.050Z,72.71
2022-10-19T06:37:11.720Z,71.51
2022-10-19T06:39:39.371Z,72.83
2022-10-19T06:42:07.027Z,73.77
2022-10-19T06:44:35.583Z,73.31
2022-10-19T06:47:03.212Z,75.02
2022-10-19T06:49:30.861Z,74.11
2022-10-19T06:51:59.843Z,72.91
2022-10-19T06:54:27.460Z,73.21
2022-10-19T06:56:55.162Z,73.24
2022-10-19T06:59:22.773Z,74.07
2022-10-19T07:01:50.438Z,74.03
2022-10-19T07:04:18.169Z,73.30
2022-10-19T07:06:45.846Z,73.27
2022-10-19T07:09:14.882Z,72.99
2022-10-19T07:11:45.994Z,72.36
2022-10-19T07:14:13.991Z,72.43
2022-10-19T07:16:41.659Z,72.08
2022-10-19T07:19:09.456Z,72.55
2022-10-19T07:21:41.612Z,71.64
2022-10-19T07:24:09.317Z,70.29
2022-10-19T07:26:38.405Z,70.30
2022-10-19T07:29:06.120Z,70.86
2022-10-19T07:31:33.884Z,71.18
2022-10-19T07:34:02.584Z,69.99
2022-10-19T07:36:31.137Z,70.72
2022-10-19T07:38:59.224Z,70.96
2022-10-19T07:41:27.376Z,71.63
2022-10-19T07:43:57.844Z,71.55
2022-10-19T07:46:27.197Z,70.19
2022-10-19T07:48:54.849Z,72.07
2022-10-19T07:51:22.963Z,71.42
2022-10-19T07:53:50.714Z,71.68
2022-10-19T07:56:19.103Z,70.52
2022-10-19T07:58:46.978Z,71.17
2022-10-19T08:01:17.243Z,69.31
2022-10-19T08:06:33.151Z,69.20
2022-10-19T08:09:00.870Z,70.55
2022-10-19T08:11:30.066Z,70.00
2022-10-19T08:13:59.127Z,71.04
2022-10-19T08:16:29.321Z,71.89
2022-10-19T08:18:58.925Z,74.23
2022-10-19T08:21:26.643Z,73.96
2022-10-19T08:23:54.593Z,73.66
2022-10-19T08:26:22.262Z,73.01
2022-10-19T08:28:49.877Z,72.90
2022-10-19T08:31:18.687Z,72.59
2022-10-19T08:33:47.772Z,73.43
2022-10-19T08:36:15.480Z,73.05
2022-10-19T08:38:45.108Z,71.36
2022-10-19T08:41:30.099Z,69.98
2022-10-19T08:44:06.333Z,69.56
2022-10-19T08:46:44.177Z,68.74
2022-10-19T08:49:17.239Z,68.96
2022-10-19T08:51:45.672Z,70.14
2022-10-19T08:54:17.168Z,69.75
2022-10-19T08:56:51.549Z,68.20
2022-10-19T08:59:26.551Z,67.38
2022-10-19T09:01:55.945Z,69.52
2022-10-19T09:04:27.072Z,69.66
2022-10-19T09:07:00.917Z,68.21
2022-10-19T09:09:30.949Z,66.91
2022-10-19T09:12:03.169Z,67.64
2022-10-19T09:14:33.511Z,67.25
2022-10-19T09:17:03.842Z,67.29
2022-10-19T09:19:33.321Z,67.23
2022-10-19T09:22:02.970Z,68.17
2022-10-19T09:24:33.002Z,68.28
2022-10-19T09:27:01.707Z,67.48
2022-10-19T09:29:34.274Z,67.18
2022-10-19T09:32:04.815Z,65.98
2022-10-19T09:34:36.795Z,66.84
2022-10-19T09:37:04.486Z,67.10
2022-10-19T09:39:32.394Z,66.58
2022-10-19T09:42:05.884Z,67.39
2022-10-19T09:44:33.482Z,66.83
2022-10-19T09:47:09.103Z,67.11
2022-10-19T09:49:43.221Z,64.35
2022-10-19T09:52:32.709Z,65.64
2022-10-19T09:55:02.371Z,66.04
2022-10-19T09:57:30.707Z,65.09
2022-10-19T09:59:58.947Z,63.16
2022-10-19T10:02:30.981Z,63.46
2022-10-19T10:05:06.367Z,62.81
2022-10-19T10:07:36.659Z,61.91
2022-10-19T10:10:10.282Z,62.77
2022-10-19T10:12:38.530Z,62.01
2022-10-19T10:15:07.161Z,60.57
2022-10-19T10:17:36.831Z,59.01
2022-10-19T10:20:18.379Z,58.08
2022-10-19T10:22:52.792Z,57.76
2022-10-19T10:25:20.438Z,55.28
2022-10-19T10:27:55.069Z,54.90
2022-10-19T10:30:22.705Z,56.43
2022-10-19T10:32:51.469Z,56.72
2022-10-19T10:35:22.363Z,53.15
2022-10-19T10:37:50.715Z,56.83
2022-10-19T10:40:23.639Z,58.06
2022-10-19T10:42:52.585Z,53.61
2022-10-19T10:45:23.457Z,53.11
2022-10-19T10:47:51.490Z,51.66
2022-10-19T10:50:23.733Z,51.90
2022-10-19T10:53:01.312Z,49.39
2022-10-19T10:55:29.614Z,48.35
2022-10-19T10:58:10.236Z,46.95
2022-10-19T11:00:40.212Z,49.55
2022-10-19T11:03:11.893Z,47.18
2022-10-19T11:05:42.711Z,48.93
2022-10-19T11:08:18.556Z,48.16
2022-10-19T11:10:48.621Z,49.37
2022-10-19T11:13:19.096Z,47.41
2022-10-19T11:15:52.361Z,45.50
2022-10-19T11:18:21.441Z,47.70
2022-10-19T11:20:56.245Z,47.24
2022-10-19T11:23:30.507Z,47.67
2022-10-19T11:26:05.033Z,48.36
2022-10-19T11:28:40.317Z,48.82
2022-10-19T11:31:14.484Z,48.47
2022-10-19T11:33:50.060Z,49.43
2022-10-19T11:36:26.206Z,51.37
2022-10-19T11:39:02.091Z,52.16
2022-10-19T11:41:34.006Z,50.05
2022-10-19T11:44:14.407Z,51.89
2022-10-19T11:46:48.236Z,51.27
2022-10-19T11:49:25.767Z,52.40
2022-10-19T11:52:01.675Z,50.58
2022-10-19T11:54:37.986Z,47.88
2022-10-19T11:57:11.857Z,48.34
2022-10-19T11:59:47.565Z,45.67
2022-10-19T12:02:25.305Z,46.04
2022-10-19T12:04:55.530Z,47.93
2022-10-19T12:07:33.653Z,48.28
2022-10-19T12:10:04.533Z,47.55
2022-10-19T12:12:34.478Z,47.71
2022-10-19T12:15:06.699Z,48.65
2022-10-19T12:17:37.400Z,49.15
2022-10-19T12:20:08.287Z,47.96
2022-10-19T12:22:38.441Z,48.26
2022-10-19T12:25:06.826Z,46.90
2022-10-19T12:27:36.124Z,48.86
2022-10-19T12:30:06.845Z,47.79
2022-10-19T12:32:38.396Z,47.32
2022-10-19T12:35:09.488Z,47.85
2022-10-19T12:37:43.718Z,51.52
2022-10-19T12:40:20.006Z,52.32
2022-10-19T12:42:52.890Z,50.62
2022-10-19T12:45:25.476Z,52.00
2022-10-19T12:48:12.267Z,51.00
2022-10-19T12:50:58.553Z,51.16
2022-10-19T12:53:30.543Z,51.07
2022-10-19T12:56:02.385Z,50.07
2022-10-19T12:58:34.577Z,48.91
2022-10-19T13:01:03.570Z,46.43
2022-10-19T13:03:32.200Z,49.84
2022-10-19T13:06:00.986Z,48.24
2022-10-19T13:08:31.465Z,47.37
2022-10-19T13:11:04.131Z,47.80
2022-10-19T13:13:51.462Z,48.97
2022-10-19T13:16:49.217Z,50.88
2022-10-19T13:19:20.606Z,52.77
2022-10-19T13:21:55.516Z,52.76
2022-10-19T13:27:37.340Z,51.43
2022-10-19T13:30:05.846Z,51.32
2022-10-19T13:32:46.913Z,50.37
2022-10-19T13:35:25.488Z,52.23
2022-10-19T13:38:12.858Z,50.33
2022-10-19T13:40:42.528Z,52.91
2022-10-19T13:43:19.696Z,50.12
2022-10-19T13:45:54.615Z,50.56
2022-10-19T13:48:25.487Z,48.96
2022-10-19T13:50:56.605Z,48.43
2022-10-19T13:53:40.777Z,50.72
2022-10-19T13:56:25.268Z,51.91
2022-10-19T14:02:17.629Z,49.88
2022-10-19T14:04:51.975Z,49.83
2022-10-19T14:07:23.133Z,49.16
2022-10-19T14:10:14.393Z,51.24
2022-10-19T14:12:43.268Z,50.90
2022-10-19T14:15:23.586Z,51.97
2022-10-19T14:17:51.324Z,50.11
2022-10-19T14:20:30.084Z,48.12
2022-10-19T14:22:57.760Z,50.11
2022-10-19T14:25:26.942Z,48.92
2022-10-19T14:27:57.997Z,53.04
2022-10-19T14:30:27.978Z,52.10
2022-10-19T14:32:59.413Z,51.77
2022-10-19T14:35:31.831Z,51.45
2022-10-19T14:38:00.183Z,52.21
2022-10-19T14:40:29.380Z,52.22
2022-10-19T14:42:57.945Z,54.38
2022-10-19T14:45:28.349Z,53.35
2022-10-19T14:47:57.551Z,53.25
2022-10-19T14:50:27.794Z,54.27
2022-10-19T14:52:58.544Z,52.60
2022-10-19T14:55:30.369Z,51.68
2022-10-19T14:57:58.294Z,54.88
2022-10-19T15:00:27.525Z,52.83
2022-10-19T15:02:58.738Z,51.89
2022-10-19T15:05:27.864Z,54.07
2022-10-19T15:07:56.089Z,55.15
2022-10-19T15:10:25.592Z,54.51
2022-10-19T15:12:57.953Z,55.59
2022-10-19T15:15:28.970Z,55.72
2022-10-19T15:17:57.739Z,55.54
2022-10-19T15:20:27.422Z,54.35
2022-10-19T15:22:55.411Z,54.79
2022-10-19T15:25:26.159Z,54.90
2022-10-19T15:27:54.270Z,55.98
2022-10-19T15:30:24.863Z,55.86
2022-10-19T15:32:55.999Z,55.69
2022-10-19T15:35:27.240Z,55.89
2022-10-19T15:38:00.959Z,52.96
2022-10-19T15:40:32.637Z,51.53
2022-10-19T15:43:00.551Z,56.23
2022-10-19T15:45:28.920Z,53.92
2022-10-19T15:48:11.435Z,53.76
2022-10-19T15:50:43.534Z,56.12
2022-10-19T15:53:11.182Z,55.46
2022-10-19T15:55:38.764Z,56.29
2022-10-19T15:58:06.464Z,54.85
2022-10-19T16:00:34.128Z,56.38
2022-10-19T16:03:01.817Z,56.19
2022-10-19T16:05:29.657Z,54.82
2022-10-19T16:07:58.688Z,55.79
2022-10-19T16:10:27.493Z,57.47
2022-10-19T16:12:55.407Z,58.12
2022-10-19T16:15:23.987Z,57.00
2022-10-19T16:17:54.589Z,58.17
2022-10-19T16:20:22.966Z,57.75
2022-10-19T16:22:50.579Z,57.44
2022-10-19T16:25:19.583Z,57.36
2022-10-19T16:27:47.195Z,57.32
2022-10-19T16:30:14.902Z,59.13
2022-10-19T16:35:15.114Z,59.37
2022-10-19T16:37:42.732Z,58.94
2022-10-19T16:40:10.804Z,59.41
2022-10-19T16:42:39.760Z,60.59
2022-10-19T16:45:07.836Z,61.60
2022-10-19T16:47:35.500Z,63.54
2022-10-19T16:50:03.379Z,61.78
2022-10-19T16:52:31.875Z,61.77
2022-10-19T16:54:59.621Z,60.59
2022-10-19T16:57:27.257Z,63.02
2022-10-19T16:59:56.245Z,63.35
2022-10-19T17:02:23.926Z,64.02
2022-10-19T17:04:51.584Z,61.61
2022-10-19T17:07:19.265Z,62.13
2022-10-19T17:09:49.692Z,62.94
2022-10-19T17:12:19.989Z,62.33
2022-10-19T17:14:47.641Z,64.68
2022-10-19T17:17:17.149Z,63.12
2022-10-19T17:19:44.770Z,62.43
2022-10-19T17:22:12.471Z,62.30
2022-10-19T17:24:40.115Z,64.95
2022-10-19T17:27:07.728Z,65.04
2022-10-19T17:29:35.392Z,65.61
2022-10-19T17:32:03.092Z,65.63
2022-10-19T17:34:32.127Z,64.29
2022-10-19T17:36:59.735Z,64.96
2022-10-19T17:39:29.900Z,64.54
2022-10-19T17:42:01.482Z,64.29
2022-10-19T17:44:30.504Z,64.50
2022-10-19T17:46:58.436Z,65.63
2022-10-19T17:49:26.051Z,66.16
2022-10-19T17:51:55.013Z,65.69
2022-10-19T17:54:22.621Z,64.97
2022-10-19T17:56:50.292Z,65.02
2022-10-19T17:59:22.598Z,67.01
2022-10-19T18:01:57.392Z,66.66
2022-10-19T18:04:25.013Z,66.47
2022-10-19T18:06:52.645Z,65.43
2022-10-19T18:09:21.612Z,64.37
2022-10-19T18:11:49.244Z,64.82
2022-10-19T18:14:17.199Z,63.14
2022-10-19T18:16:45.819Z,66.54
2022-10-19T18:19:14.028Z,67.35
2022-10-19T18:21:42.656Z,66.39
2022-10-19T18:24:15.146Z,66.07
2022-10-19T18:26:44.711Z,66.19
2022-10-19T18:29:13.416Z,67.41
2022-10-19T18:31:41.051Z,65.49
2022-10-19T18:34:09.909Z,65.77
2022-10-19T18:36:37.525Z,67.45
2022-10-19T18:39:06.013Z,66.88
2022-10-19T18:41:33.627Z,66.52
2022-10-19T18:44:04.418Z,66.54
2022-10-19T18:46:32.850Z,66.93
2022-10-19T18:49:00.957Z,66.69
2022-10-19T18:52:36.076Z,67.83
2022-10-19T18:55:06.778Z,68.60
2022-10-19T18:57:35.460Z,68.04
2022-10-19T19:00:04.900Z,68.58
2022-10-19T19:02:46.460Z,69.96
2022-10-19T19:05:18.785Z,68.41
2022-10-19T19:07:49.516Z,68.80
2022-10-19T19:10:18.758Z,67.72
2022-10-19T19:12:50.402Z,67.48
2022-10-19T19:15:19.839Z,66.99
2022-10-19T19:17:47.849Z,64.98
2022-10-19T19:20:15.800Z,65.57
2022-10-19T19:22:43.890Z,64.54
2022-10-19T19:25:13.241Z,63.97
2022-10-19T19:27:41.209Z,61.90
2022-10-19T19:30:10.910Z,64.46
2022-10-19T19:32:38.910Z,61.14
2022-10-19T19:35:07.489Z,61.99
2022-10-19T19:37:36.454Z,60.55
2022-10-19T19:40:04.907Z,60.07
2022-10-19T19:42:35.317Z,59.89
2022-10-19T19:45:03.359Z,59.86
2022-10-19T19:47:31.190Z,59.49
2022-10-19T19:49:59.033Z,59.84
2022-10-19T19:52:26.921Z,59.42
2022-10-19T19:54:54.764Z,59.60
2022-10-19T19:57:22.903Z,59.50
2022-10-19T19:59:52.116Z,60.27
2022-10-19T20:02:21.088Z,60.07
2022-10-19T20:04:49.965Z,59.84
2022-10-19T20:07:17.828Z,61.31
2022-10-19T20:09:46.076Z,60.15
2022-10-19T20:12:14.248Z,59.89
2022-10-19T20:14:42.088Z,59.88
2022-10-19T20:17:11.302Z,60.15
2022-10-19T20:19:39.340Z,59.74
2022-10-19T20:22:07.253Z,59.80
2022-10-19T20:24:37.637Z,59.44
2022-10-19T20:27:05.869Z,59.16
2022-10-19T20:29:33.880Z,59.98
2022-10-19T20:32:01.834Z,61.05
2022-10-19T20:34:31.262Z,59.75
2022-10-19T20:36:59.234Z,59.72
2022-10-19T20:39:27.226Z,59.84
2022-10-19T20:41:55.349Z,59.57
2022-10-19T20:44:23.290Z,58.51
2022-10-19T20:46:51.291Z,59.32
2022-10-19T20:49:19.344Z,59.87
2022-10-19T20:51:48.640Z,59.47
2022-10-19T20:54:16.492Z,60.12
2022-10-19T20:56:44.327Z,59.96
2022-10-19T20:59:14.325Z,59.56
2022-10-19T21:01:44.020Z,59.72
2022-10-19T21:04:14.556Z,59.91
2022-10-19T21:06:44.041Z,59.72
2022-10-19T21:09:15.366Z,59.62
2022-10-19T21:11:44.271Z,59.79
2022-10-19T21:14:14.162Z,60.23
2022-10-19T21:16:43.047Z,60.12
2022-10-19T21:19:13.917Z,61.74
2022-10-19T21:21:44.402Z,61.27
2022-10-19T21:24:16.048Z,63.16
2022-10-19T21:26:44.130Z,64.20
2022-10-19T21:29:13.491Z,63.50
2022-10-19T21:31:45.218Z,64.15
2022-10-19T21:34:17.155Z,63.42
2022-10-19T21:36:45.052Z,62.64
2022-10-19T21:39:14.493Z,64.84
2022-10-19T21:41:42.376Z,64.82
2022-10-19T21:44:10.492Z,62.84
2022-10-19T21:46:38.356Z,65.40
2022-10-19T21:49:06.164Z,63.83
2022-10-19T21:51:37.464Z,63.56
2022-10-19T21:54:06.677Z,64.50
2022-10-19T21:56:35.978Z,63.76
2022-10-19T21:59:04.041Z,64.40
2022-10-19T22:01:37.241Z,65.83
2022-10-19T22:04:10.526Z,64.88
2022-10-19T22:06:38.452Z,65.37
2022-10-19T22:09:08.742Z,64.84
2022-10-19T22:11:38.007Z,65.68
2022-10-19T22:14:06.437Z,64.86
2022-10-19T22:16:36.844Z,65.35
2022-10-19T22:19:06.000Z,64.68
2022-10-19T22:21:35.200Z,65.13
2022-10-19T22:24:05.545Z,65.51
2022-10-19T22:26:35.277Z,65.44
2022-10-19T22:29:06.383Z,64.43
2022-10-19T22:31:35.714Z,64.46
2022-10-19T22:34:05.349Z,64.74
2022-10-19T22:36:33.339Z,64.91
2022-10-19T22:39:01.160Z,64.63
2022-10-19T22:41:29.006Z,64.35
2022-10-19T22:43:56.858Z,64.68
2022-10-19T22:46:26.136Z,64.33
2022-10-19T22:48:54.150Z,64.19
2022-10-19T22:51:22.214Z,63.53
2022-10-19T22:53:50.149Z,65.31
2022-10-19T22:56:18.030Z,63.39
2022-10-19T22:58:45.994Z,63.75
2022-10-19T23:01:16.108Z,64.19
2022-10-19T23:03:45.619Z,64.54
2022-10-19T23:06:15.290Z,64.30
2022-10-19T23:08:43.754Z,63.69
2022-10-19T23:11:12.376Z,64.05
2022-10-19T23:13:40.780Z,64.30
2022-10-19T23:16:09.705Z,64.54
2022-10-19T23:18:40.117Z,64.38
2022-10-19T23:21:12.166Z,63.96
2022-10-19T23:23:40.820Z,64.82
2022-10-19T23:26:11.061Z,64.58
2022-10-19T23:28:40.599Z,65.40
2022-10-19T23:31:10.595Z,65.62
2022-10-19T23:33:38.890Z,64.88
2022-10-19T23:36:09.851Z,65.59
2022-10-19T23:38:37.754Z,65.12
2022-10-19T23:41:05.934Z,65.72
2022-10-19T23:43:34.181Z,66.21
2022-10-19T23:46:02.054Z,67.24
2022-10-19T23:48:29.980Z,65.22
2022-10-19T23:50:59.358Z,65.39
2022-10-19T23:53:30.241Z,65.85
2022-10-19T23:56:01.358Z,66.98
2022-10-19T23:58:30.205Z,65.67
